Time;durP1;ratioP1;P1;durP2;ratioP2;P2;SDS_P1;SDS_P2;PMS_P1;PMS_P2;Temp;Humidity;BMP_temperature;BMP_pressure;BME280_temperature;BME280_humidity;BME280_pressure;Samples;Min_cycle;Max_cycle;Signal;HPM_P1;HPM_P2
2020/12/16 00:02:09;;;;;;;8.88;2.45;;;22.30;56.10;;;;;;6363111;22;20082;-71
2020/12/16 00:04:35;;;;;;;8.80;2.85;;;22.30;56.10;;;;;;6362339;22;19999;-74
2020/12/16 00:07:02;;;;;;;12.88;2.72;;;22.30;56.20;;;;;;6362515;22;20032;-72
2020/12/16 00:09:28;;;;;;;10.25;2.15;;;22.30;56.20;;;;;;6363022;22;20010;-71
2020/12/16 00:11:55;;;;;;;12.68;3.50;;;22.30;56.30;;;;;;6361777;22;20010;-72
2020/12/16 00:14:21;;;;;;;7.28;2.85;;;22.20;56.30;;;;;;6363486;22;20762;-74
2020/12/16 00:16:48;;;;;;;7.72;2.45;;;22.30;56.40;;;;;;6362032;22;20074;-74
2020/12/16 00:19:14;;;;;;;8.77;2.17;;;22.20;56.40;;;;;;6363360;22;20002;-74
2020/12/16 00:21:41;;;;;;;8.50;3.60;;;22.20;56.40;;;;;;6333949;22;20503;-74
2020/12/16 00:24:07;;;;;;;9.27;2.55;;;22.20;56.40;;;;;;6362465;22;20005;-71
2020/12/16 00:26:34;;;;;;;7.68;2.75;;;22.20;56.40;;;;;;6362817;22;20009;-72
2020/12/16 00:29:00;;;;;;;6.80;2.17;;;22.20;56.50;;;;;;6362205;22;20017;-72
2020/12/16 00:31:27;;;;;;;9.18;2.92;;;22.20;56.50;;;;;;6362615;22;19998;-74
2020/12/16 00:33:53;;;;;;;10.45;2.40;;;22.20;56.60;;;;;;6361842;22;20018;-74
2020/12/16 00:36:20;;;;;;;5.38;2.15;;;22.20;56.70;;;;;;6364269;22;20009;-73
2020/12/16 00:38:46;;;;;;;13.10;3.33;;;22.20;56.70;;;;;;6364094;22;20325;-74
2020/12/16 00:41:13;;;;;;;8.38;2.15;;;22.20;56.70;;;;;;6365509;22;20633;-73
2020/12/16 00:43:39;;;;;;;6.93;2.30;;;22.10;56.70;;;;;;6363956;22;20093;-73
2020/12/16 00:46:06;;;;;;;9.25;2.35;;;22.10;56.70;;;;;;6364513;22;20039;-72
2020/12/16 00:48:32;;;;;;;7.00;2.38;;;22.10;56.70;;;;;;6364506;22;20013;-72
2020/12/16 00:50:59;;;;;;;7.68;1.73;;;22.10;56.70;;;;;;6363433;22;20010;-72
2020/12/16 00:53:25;;;;;;;6.38;2.03;;;22.10;56.80;;;;;;6364291;22;20043;-74
2020/12/16 00:55:52;;;;;;;8.70;2.67;;;22.10;56.80;;;;;;6363708;22;20031;-73
2020/12/16 00:58:18;;;;;;;8.40;1.95;;;22.10;56.90;;;;;;6364692;22;19998;-72
2020/12/16 01:00:45;;;;;;;7.80;2.65;;;22.10;57.00;;;;;;6364005;22;20077;-74
2020/12/16 01:03:11;;;;;;;5.90;3.13;;;22.00;57.60;;;;;;6364175;22;19994;-72
2020/12/16 01:05:37;;;;;;;11.25;3.80;;;22.00;57.00;;;;;;6364940;22;19999;-72
2020/12/16 01:08:04;;;;;;;8.07;3.13;;;22.00;57.10;;;;;;6363078;22;20528;-74
2020/12/16 01:10:30;;;;;;;6.70;3.38;;;22.00;57.20;;;;;;6365111;22;20600;-72
2020/12/16 01:12:57;;;;;;;5.78;1.77;;;22.00;57.20;;;;;;6363843;22;20407;-71
2020/12/16 01:15:24;;;;;;;8.82;2.67;;;22.00;57.20;;;;;;6365324;22;20398;-73
2020/12/16 01:17:50;;;;;;;10.05;2.50;;;21.90;57.20;;;;;;6364172;22;20156;-72
2020/12/16 01:20:17;;;;;;;7.13;2.58;;;22.00;57.20;;;;;;6364738;22;19999;-72
2020/12/16 01:22:45;;;;;;;9.13;3.85;;;22.00;57.20;;;;;;6363231;22;20504;-72
2020/12/16 01:25:13;;;;;;;10.75;2.42;;;22.00;57.20;;;;;;6362506;22;20002;-71
2020/12/16 01:27:39;;;;;;;6.32;1.90;;;21.90;57.20;;;;;;6365071;22;19994;-71
2020/12/16 01:30:09;;;;;;;6.68;2.20;;;21.90;57.10;;;;;;6363501;22;20006;-71
2020/12/16 01:32:39;;;;;;;7.95;2.45;;;21.90;57.20;;;;;;6364374;22;20005;-75
2020/12/16 01:35:09;;;;;;;6.88;2.75;;;21.90;57.20;;;;;;6362681;22;20063;-72
2020/12/16 01:37:36;;;;;;;11.30;2.83;;;21.80;57.20;;;;;;6364215;22;19998;-72
2020/12/16 01:40:09;;;;;;;8.80;2.55;;;21.90;57.30;;;;;;6364204;22;19994;-72
2020/12/16 01:42:39;;;;;;;7.35;3.03;;;21.80;57.40;;;;;;6363161;22;20077;-72
2020/12/16 01:45:14;;;;;;;12.32;3.90;;;21.80;57.40;;;;;;6364234;22;20010;-72
2020/12/16 01:47:41;;;;;;;9.70;3.33;;;21.80;57.40;;;;;;6364051;22;20026;-72
2020/12/16 01:50:09;;;;;;;4.85;2.30;;;21.80;57.50;;;;;;6364963;22;20159;-72
2020/12/16 01:52:38;;;;;;;5.05;2.28;;;21.80;57.50;;;;;;6363358;22;20017;-72
2020/12/16 01:55:07;;;;;;;7.13;2.38;;;21.80;57.60;;;;;;6364201;22;20009;-73
2020/12/16 01:57:37;;;;;;;6.22;2.08;;;21.80;57.60;;;;;;6364510;22;20466;-74
2020/12/16 02:00:09;;;;;;;9.48;2.63;;;21.80;57.70;;;;;;6363522;22;20002;-72
2020/12/16 02:02:44;;;;;;;7.85;2.45;;;21.80;57.70;;;;;;6364892;22;20002;-72
2020/12/16 02:05:12;;;;;;;;;;;21.80;57.80;;;;;;6363697;22;19994;-72
2020/12/16 02:07:39;;;;;;;7.20;2.75;;;21.70;57.80;;;;;;6364739;22;20382;-74
2020/12/16 02:10:06;;;;;;;11.18;2.83;;;21.70;57.90;;;;;;6364041;22;20037;-75
2020/12/16 02:12:36;;;;;;;14.35;4.30;;;21.70;58.00;;;;;;6363793;22;20026;-71
2020/12/16 02:15:07;;;;;;;5.03;3.30;;;21.70;58.00;;;;;;6337166;22;20010;-72
2020/12/16 02:17:34;;;;;;;11.85;3.67;;;21.70;58.10;;;;;;6363837;22;20321;-71
2020/12/16 02:20:04;;;;;;;7.93;2.50;;;21.70;58.20;;;;;;6364657;22;20002;-72
2020/12/16 02:22:31;;;;;;;11.75;3.22;;;21.70;58.20;;;;;;6363316;22;20127;-72
2020/12/16 02:25:07;;;;;;;8.88;2.08;;;21.70;58.30;;;;;;6364792;22;20006;-73
2020/12/16 02:27:38;;;;;;;5.60;2.10;;;21.70;58.30;;;;;;6364220;22;20055;-74
2020/12/16 02:30:07;;;;;;;9.57;2.35;;;21.60;58.30;;;;;;6363473;22;20014;-72
2020/12/16 02:32:35;;;;;;;5.90;2.00;;;21.60;58.30;;;;;;6364261;22;20002;-72
2020/12/16 02:35:01;;;;;;;6.32;1.98;;;21.60;58.40;;;;;;6357032;22;20026;-72
2020/12/16 02:37:27;;;;;;;7.53;2.67;;;21.60;58.40;;;;;;6362024;22;20437;-72
2020/12/16 02:39:55;;;;;;;10.68;3.33;;;21.60;58.50;;;;;;6362959;22;20077;-73
2020/12/16 02:42:32;;;;;;;9.55;2.40;;;21.60;58.50;;;;;;6364424;22;20003;-72
2020/12/16 02:44:58;;;;;;;10.18;2.33;;;21.60;58.60;;;;;;6354567;22;20002;-72
2020/12/16 02:47:25;;;;;;;8.18;2.22;;;21.60;58.60;;;;;;6363507;22;20120;-74
2020/12/16 02:49:52;;;;;;;10.27;2.10;;;21.60;58.60;;;;;;6364838;22;20017;-71
2020/12/16 02:52:19;;;;;;;9.75;3.38;;;21.60;58.60;;;;;;6363320;22;20341;-72
2020/12/16 02:54:45;;;;;;;5.13;2.47;;;21.60;58.60;;;;;;6364488;22;20077;-73
2020/12/16 02:57:12;;;;;;;9.52;2.80;;;21.50;58.60;;;;;;6362554;22;20002;-73
2020/12/16 02:59:39;;;;;;;12.05;2.65;;;21.50;58.60;;;;;;6363789;22;20002;-71
2020/12/16 03:02:05;;;;;;;10.13;2.13;;;21.60;58.70;;;;;;6363496;22;20717;-75
2020/12/16 03:04:32;;;;;;;9.07;3.53;;;21.50;58.70;;;;;;6363223;22;20006;-73
2020/12/16 03:06:58;;;;;;;15.07;4.57;;;21.50;58.70;;;;;;6336741;22;19998;-74
2020/12/16 03:09:26;;;;;;;10.98;4.63;;;21.50;58.80;;;;;;6362520;22;20483;-74
2020/12/16 03:11:55;;;;;;;16.30;3.80;;;21.50;58.90;;;;;;6364292;22;20311;-72
2020/12/16 03:14:22;;;;;;;13.50;3.55;;;21.50;58.90;;;;;;6362734;22;20398;-72
2020/12/16 03:16:49;;;;;;;9.05;2.67;;;21.50;59.00;;;;;;6364406;22;19998;-72
2020/12/16 03:19:16;;;;;;;11.02;3.08;;;21.50;59.00;;;;;;6363632;22;20022;-74
2020/12/16 03:21:43;;;;;;;9.48;2.58;;;21.50;59.00;;;;;;6361437;22;19999;-73
2020/12/16 03:24:10;;;;;;;7.03;2.55;;;21.50;59.00;;;;;;6363222;22;20007;-72
2020/12/16 03:26:40;;;;;;;8.02;2.30;;;21.40;59.10;;;;;;6362344;22;19990;-74
2020/12/16 03:29:06;;;;;;;7.72;2.22;;;21.40;59.10;;;;;;6364321;22;20014;-73
2020/12/16 03:31:33;;;;;;;12.10;3.50;;;21.40;59.20;;;;;;6334849;22;20003;-72
2020/12/16 03:34:00;;;;;;;9.63;5.53;;;21.40;59.20;;;;;;6364402;22;20002;-71
2020/12/16 03:36:26;;;;;;;14.80;6.35;;;21.40;59.30;;;;;;6362986;22;20107;-72
2020/12/16 03:38:53;;;;;;;11.75;5.45;;;21.40;59.30;;;;;;6363688;22;20014;-75
2020/12/16 03:41:19;;;;;;;12.68;3.97;;;21.40;59.40;;;;;;6363894;22;20007;-75
2020/12/16 03:43:50;;;;;;;11.73;5.55;;;21.40;59.30;;;;;;6362899;22;20344;-73
2020/12/16 03:46:17;;;;;;;7.55;2.85;;;21.40;59.40;;;;;;6363987;22;20010;-73
2020/12/16 03:48:44;;;;;;;7.20;1.90;;;21.40;59.40;;;;;;6362625;22;20478;-72
2020/12/16 03:51:13;;;;;;;9.60;3.50;;;21.40;59.40;;;;;;6364261;22;20041;-74
2020/12/16 03:53:41;;;;;;;9.07;4.45;;;21.40;59.50;;;;;;6362700;22;20002;-73
2020/12/16 03:56:09;;;;;;;9.35;4.68;;;21.30;59.60;;;;;;6363398;22;20027;-72
2020/12/16 03:58:41;;;;;;;8.48;5.60;;;21.30;59.60;;;;;;6364012;22;20429;-71
2020/12/16 04:01:09;;;;;;;12.25;4.07;;;21.30;59.60;;;;;;6363144;22;20631;-73
2020/12/16 04:03:36;;;;;;;13.20;3.25;;;21.30;59.60;;;;;;6363390;22;20026;-72
2020/12/16 04:06:06;;;;;;;7.20;2.95;;;21.30;59.60;;;;;;6362201;22;19998;-71
2020/12/16 04:08:34;;;;;;;8.32;3.53;;;21.30;59.70;;;;;;6363860;22;20101;-70
2020/12/16 04:11:02;;;;;;;7.18;2.92;;;21.30;59.70;;;;;;6335137;22;20006;-70
2020/12/16 04:13:28;;;;;;;5.32;2.03;;;21.30;59.70;;;;;;6365836;22;20010;-74
2020/12/16 04:15:55;;;;;;;16.45;3.75;;;21.30;59.80;;;;;;6366292;22;20036;-73
2020/12/16 04:18:22;;;;;;;22.48;6.47;;;21.30;59.90;;;;;;6364831;22;20421;-72
2020/12/16 04:20:50;;;;;;;7.95;4.10;;;21.30;60.70;;;;;;6365892;22;20375;-72
2020/12/16 04:23:18;;;;;;;12.23;3.83;;;21.30;60.00;;;;;;6365050;22;20006;-72
2020/12/16 04:25:45;;;;;;;13.80;3.72;;;21.30;60.10;;;;;;6366162;22;20006;-71
2020/12/16 04:28:12;;;;;;;11.73;3.05;;;21.30;60.20;;;;;;6364316;22;20044;-73
2020/12/16 04:30:40;;;;;;;13.35;3.08;;;21.30;60.20;;;;;;6365542;22;20484;-72
2020/12/16 04:33:06;;;;;;;15.32;4.45;;;21.30;60.20;;;;;;6366107;22;20073;-75
2020/12/16 04:35:34;;;;;;;11.45;4.05;;;21.30;60.30;;;;;;6365717;22;20456;-74
2020/12/16 04:38:05;;;;;;;16.83;4.10;;;21.30;60.30;;;;;;6366387;22;20430;-74
2020/12/16 04:41:11;;;;;;;9.15;3.45;;;21.30;60.30;;;;;;6337785;22;20011;-74
2020/12/16 04:43:43;;;;;;;10.70;3.63;;;21.30;60.40;;;;;;6338653;22;20010;-73
2020/12/16 04:46:15;;;;;;;19.90;3.75;;;21.30;60.60;;;;;;6366747;22;20074;-74
2020/12/16 04:48:46;;;;;;;12.60;3.35;;;21.30;60.60;;;;;;6336170;22;20014;-75
2020/12/16 04:51:16;;;;;;;9.77;3.17;;;21.30;60.60;;;;;;6366675;22;20018;-73
2020/12/16 04:53:45;;;;;;;7.57;2.55;;;21.30;60.60;;;;;;6365307;22;19999;-73
2020/12/16 04:56:13;;;;;;;8.05;2.60;;;21.30;60.80;;;;;;6367071;22;20005;-75
2020/12/16 04:58:40;;;;;;;8.90;3.33;;;21.30;60.80;;;;;;6365840;22;20051;-73
2020/12/16 05:01:09;;;;;;;9.70;4.65;;;21.30;60.80;;;;;;6366317;22;20022;-73
2020/12/16 05:03:35;;;;;;;10.88;5.13;;;21.30;60.90;;;;;;6366967;22;20006;-74
2020/12/16 05:06:02;;;;;;;11.60;5.50;;;21.30;60.80;;;;;;6362469;22;20022;-72
2020/12/16 05:08:29;;;;;;;14.93;6.57;;;21.30;60.80;;;;;;6366128;22;20039;-75
2020/12/16 05:10:56;;;;;;;13.68;4.90;;;21.40;60.80;;;;;;6365304;22;20022;-74
2020/12/16 05:13:27;;;;;;;10.88;3.80;;;21.40;60.80;;;;;;6366766;22;20326;-76
2020/12/16 05:16:01;;;;;;;7.63;3.75;;;21.40;60.80;;;;;;6366372;22;20446;-74
2020/12/16 05:18:29;;;;;;;13.65;3.58;;;21.40;60.90;;;;;;6366352;22;20030;-74
2020/12/16 05:20:59;;;;;;;13.35;3.25;;;21.40;60.80;;;;;;6338964;22;20039;-74
2020/12/16 05:23:31;;;;;;;11.35;3.60;;;21.50;60.80;;;;;;6336784;22;19998;-72
2020/12/16 05:26:06;;;;;;;13.02;3.17;;;21.40;60.80;;;;;;6366655;22;20032;-73
2020/12/16 05:28:45;;;;;;;16.80;3.40;;;21.50;60.80;;;;;;6364847;22;20038;-73
2020/12/16 05:31:13;;;;;;;14.50;2.97;;;21.50;60.80;;;;;;6366418;22;20516;-73
2020/12/16 05:33:49;;;;;;;14.45;3.70;;;21.50;60.70;;;;;;6338218;22;20010;-75
2020/12/16 05:36:32;;;;;;;11.95;2.72;;;21.50;60.60;;;;;;6365444;22;20021;-74
2020/12/16 05:39:00;;;;;;;11.77;2.97;;;21.60;60.60;;;;;;6366470;22;20430;-76
2020/12/16 05:41:28;;;;;;;12.43;3.25;;;21.60;60.60;;;;;;6365244;22;20086;-73
2020/12/16 05:44:18;;;;;;;10.35;2.83;;;21.60;60.50;;;;;;6367027;22;20073;-74
2020/12/16 05:46:47;;;;;;;9.43;3.70;;;21.60;60.30;;;;;;6366293;22;20014;-72
2020/12/16 05:49:31;;;;;;;7.20;2.35;;;21.70;60.30;;;;;;6365199;22;20593;-71
2020/12/16 05:52:00;;;;;;;8.73;3.65;;;21.70;60.10;;;;;;6365860;22;20457;-73
2020/12/16 05:54:28;;;;;;;4.45;1.77;;;21.70;60.00;;;;;;6365130;22;20438;-73
2020/12/16 05:57:19;;;;;;;8.68;2.30;;;21.80;59.90;;;;;;6367594;22;20355;-74
2020/12/16 06:00:12;;;;;;;6.78;2.33;;;21.80;59.80;;;;;;6349180;22;20002;-79
2020/12/16 06:02:46;;;;;;;7.32;2.20;;;21.80;59.70;;;;;;6336569;22;20013;-74
2020/12/16 06:05:14;;;;;;;7.28;1.92;;;21.90;59.60;;;;;;6366347;22;20063;-73
2020/12/16 06:07:46;;;;;;;10.02;3.88;;;21.90;59.50;;;;;;6364310;22;20796;-73
2020/12/16 06:10:13;;;;;;;8.43;2.40;;;21.90;59.30;;;;;;6366774;22;20014;-75
2020/12/16 06:12:42;;;;;;;8.00;2.60;;;21.90;59.30;;;;;;6365731;22;20349;-75
2020/12/16 06:15:16;;;;;;;7.07;2.95;;;22.00;59.30;;;;;;6365547;22;20002;-72
2020/12/16 06:17:46;;;;;;;16.17;4.43;;;22.00;59.10;;;;;;6366488;22;20061;-76
2020/12/16 06:20:15;;;;;;;22.55;8.43;;;22.00;59.00;;;;;;6364688;22;20056;-75
2020/12/16 06:22:44;;;;;;;34.30;11.85;;;22.10;59.00;;;;;;6338371;22;20002;-72
2020/12/16 06:25:13;;;;;;;97.15;34.63;;;22.10;58.90;;;;;;6365308;22;20427;-72
2020/12/16 06:27:48;;;;;;;95.55;31.05;;;22.20;58.90;;;;;;6365479;22;19994;-73
2020/12/16 06:30:35;;;;;;;82.57;30.60;;;22.20;58.70;;;;;;6366568;22;20372;-74
2020/12/16 06:33:08;;;;;;;83.70;27.08;;;22.20;58.60;;;;;;6364753;22;20045;-75
2020/12/16 06:35:36;;;;;;;59.08;20.00;;;22.30;58.60;;;;;;6365695;22;20013;-73
2020/12/16 06:38:16;;;;;;;52.70;15.93;;;22.30;58.40;;;;;;6365261;22;20002;-74
2020/12/16 06:40:48;;;;;;;40.58;16.80;;;22.40;58.30;;;;;;6365629;22;19998;-74
2020/12/16 06:43:34;;;;;;;44.05;17.42;;;22.40;58.20;;;;;;6367287;22;20326;-73
2020/12/16 06:46:24;;;;;;;43.05;18.60;;;22.40;58.00;;;;;;6365067;22;19999;-75
2020/12/16 06:48:50;;;;;;;30.15;15.50;;;22.50;57.90;;;;;;6345405;22;20017;-74
2020/12/16 06:51:18;;;;;;;23.52;14.63;;;22.50;57.70;;;;;;6364734;22;20033;-74
2020/12/16 06:53:45;;;;;;;23.80;11.85;;;22.60;57.70;;;;;;6364929;22;20002;-73
2020/12/16 06:56:17;;;;;;;20.80;9.85;;;22.50;57.60;;;;;;6365164;22;20002;-73
2020/12/16 06:58:44;;;;;;;18.48;7.75;;;22.60;57.30;;;;;;6365196;22;20009;-72
2020/12/16 07:01:19;;;;;;;21.98;8.43;;;22.70;57.20;;;;;;6367093;22;20079;-71
2020/12/16 07:03:45;;;;;;;;;;;22.70;57.00;;;;;;6365646;22;20377;-72
2020/12/16 07:06:32;;;;;;;17.67;5.95;;;22.70;56.80;;;;;;6365285;22;19905;-72
2020/12/16 07:09:23;;;;;;;17.45;7.38;;;22.70;56.70;;;;;;6365217;22;20035;-74
2020/12/16 07:11:54;;;;;;;12.15;4.60;;;22.80;56.60;;;;;;6360114;22;20006;-72
2020/12/16 07:14:24;;;;;;;11.25;4.75;;;22.90;56.50;;;;;;6365753;22;19995;-75
2020/12/16 07:16:50;;;;;;;9.90;3.30;;;22.90;57.00;;;;;;6336864;22;19998;-75
2020/12/16 07:19:27;;;;;;;7.45;2.80;;;22.90;56.20;;;;;;6365341;22;20073;-71
2020/12/16 07:21:55;;;;;;;12.88;4.53;;;22.90;56.00;;;;;;6365945;22;20541;-72
2020/12/16 07:24:23;;;;;;;13.02;3.20;;;23.00;56.00;;;;;;6364571;22;19994;-79
2020/12/16 07:26:55;;;;;;;11.05;3.05;;;23.10;55.80;;;;;;6365332;22;19994;-73
2020/12/16 07:29:28;;;;;;;12.25;4.60;;;23.10;55.70;;;;;;6365018;22;20535;-76
2020/12/16 07:32:13;;;;;;;8.40;3.33;;;23.10;55.60;;;;;;6365663;22;20321;-76
2020/12/16 07:34:56;;;;;;;10.05;3.08;;;23.10;55.50;;;;;;6365047;22;20077;-76
2020/12/16 07:37:28;;;;;;;6.13;2.70;;;23.20;55.40;;;;;;6364108;22;19991;-76
2020/12/16 07:39:57;;;;;;;10.77;3.97;;;23.20;55.20;;;;;;6365736;22;19995;-76
2020/12/16 07:42:25;;;;;;;155.60;19.63;;;23.20;55.10;;;;;;6364298;22;20006;-74
2020/12/16 07:44:52;;;;;;;116.88;14.25;;;23.30;55.00;;;;;;6365741;22;20002;-74
2020/12/16 07:47:19;;;;;;;69.38;10.13;;;23.40;55.00;;;;;;6366033;22;20033;-73
2020/12/16 07:49:48;;;;;;;46.13;7.65;;;23.40;54.90;;;;;;6367804;22;20013;-74
2020/12/16 07:52:15;;;;;;;33.38;4.80;;;23.40;54.90;;;;;;6368049;22;20517;-76
2020/12/16 07:54:42;;;;;;;21.83;4.95;;;23.40;54.80;;;;;;6367078;22;20044;-79
2020/12/16 07:57:09;;;;;;;19.27;3.88;;;23.50;54.90;;;;;;6366047;22;20008;-76
2020/12/16 07:59:36;;;;;;;19.52;3.33;;;23.50;55.00;;;;;;6366341;22;20079;-75
2020/12/16 08:02:11;;;;;;;23.15;3.25;;;23.50;55.00;;;;;;6367701;22;20372;-75
2020/12/16 08:04:43;;;;;;;9.30;2.83;;;23.60;55.00;;;;;;6366203;22;20077;-81
2020/12/16 08:07:17;;;;;;;247.77;222.63;;;23.60;54.80;;;;;;6366009;22;20003;-73
2020/12/16 08:10:10;;;;;;;198.65;179.27;;;23.70;54.80;;;;;;6367758;22;20010;-75
2020/12/16 08:12:42;;;;;;;87.28;78.53;;;23.80;54.70;;;;;;6359469;22;20433;-74
2020/12/16 08:15:14;;;;;;;57.20;48.88;;;23.80;54.60;;;;;;6367314;22;20040;-72
2020/12/16 08:17:41;;;;;;;42.63;37.97;;;23.90;54.50;;;;;;6366179;22;20002;-76
2020/12/16 08:20:12;;;;;;;29.95;26.35;;;23.90;54.30;;;;;;6367034;22;20002;-75
2020/12/16 08:22:40;;;;;;;24.25;19.55;;;24.00;54.00;;;;;;6367317;22;20029;-76
2020/12/16 08:25:10;;;;;;;20.67;15.90;;;24.00;53.70;;;;;;6366312;22;20077;-74
2020/12/16 08:27:45;;;;;;;16.98;12.00;;;24.00;53.80;;;;;;6367437;22;20010;-74
2020/12/16 08:30:13;;;;;;;16.00;10.50;;;24.10;53.60;;;;;;6365331;22;20093;-76
2020/12/16 08:33:06;;;;;;;10.77;7.88;;;24.10;53.40;;;;;;6367817;22;20032;-75
2020/12/16 08:36:04;;;;;;;12.25;5.97;;;24.20;53.40;;;;;;6367554;22;20002;-81
2020/12/16 08:38:36;;;;;;;10.50;6.72;;;24.20;53.20;;;;;;6366249;22;20001;-73
2020/12/16 08:41:05;;;;;;;8.10;3.95;;;24.20;53.00;;;;;;6367960;22;20002;-74
2020/12/16 08:43:36;;;;;;;12.07;4.38;;;24.30;52.90;;;;;;6366958;22;20002;-75
2020/12/16 08:46:04;;;;;;;9.77;3.58;;;24.40;52.80;;;;;;6366992;22;19998;-74
2020/12/16 08:48:48;;;;;;;5.97;3.03;;;24.40;52.60;;;;;;6339386;22;19998;-74
2020/12/16 08:51:18;;;;;;;10.98;3.00;;;24.40;52.40;;;;;;6366015;22;20041;-75
2020/12/16 08:53:56;;;;;;;7.90;3.25;;;24.50;52.40;;;;;;6367387;22;20391;-74
2020/12/16 08:56:37;;;;;;;7.60;2.83;;;24.60;52.50;;;;;;6361005;22;20034;-76
2020/12/16 08:59:15;;;;;;;6.15;2.55;;;24.60;52.50;;;;;;6366878;22;20081;-77
2020/12/16 09:01:46;;;;;;;10.48;2.42;;;24.60;52.50;;;;;;6367359;22;20022;-76
2020/12/16 09:04:36;;;;;;;11.48;3.08;;;24.70;52.10;;;;;;6365812;22;20025;-76
2020/12/16 09:07:02;;;;;;;8.73;2.42;;;24.70;51.90;;;;;;6366426;22;20401;-76
2020/12/16 09:09:29;;;;;;;10.40;3.25;;;24.80;51.60;;;;;;6337388;22;20056;-76
2020/12/16 09:11:57;;;;;;;12.57;2.65;;;24.80;51.30;;;;;;6366509;22;20005;-82
2020/12/16 09:14:24;;;;;;;5.75;2.05;;;24.80;51.10;;;;;;6366909;22;20013;-75
2020/12/16 09:16:51;;;;;;;7.35;2.08;;;24.80;51.00;;;;;;6365585;22;19997;-76
2020/12/16 09:19:23;;;;;;;8.68;2.83;;;24.90;51.20;;;;;;6338471;22;20425;-73
2020/12/16 09:21:51;;;;;;;9.13;3.00;;;25.00;51.20;;;;;;6365979;22;20040;-75
2020/12/16 09:24:22;;;;;;;18.45;15.32;;;25.00;51.30;;;;;;6338774;22;20464;-75
2020/12/16 09:26:50;;;;;;;8.73;4.35;;;25.10;51.00;;;;;;6366061;22;20360;-75
2020/12/16 09:29:28;;;;;;;11.43;5.18;;;25.10;51.00;;;;;;6366888;22;20017;-76
2020/12/16 09:32:24;;;;;;;7.88;4.22;;;25.10;50.90;;;;;;6367321;22;19995;-75
2020/12/16 09:34:53;;;;;;;8.77;3.25;;;25.10;50.70;;;;;;6345092;22;20020;-75
2020/12/16 09:37:23;;;;;;;5.53;2.70;;;25.20;50.80;;;;;;6367048;22;20002;-75
2020/12/16 09:39:50;;;;;;;9.60;3.22;;;25.20;50.70;;;;;;6366350;22;20006;-82
2020/12/16 09:42:19;;;;;;;8.25;2.13;;;25.30;50.20;;;;;;6366254;22;20011;-73
2020/12/16 09:44:47;;;;;;;9.52;2.72;;;25.30;50.20;;;;;;6366640;22;20006;-75
2020/12/16 09:47:22;;;;;;;8.02;2.55;;;25.30;50.30;;;;;;6336729;22;20002;-75
2020/12/16 09:50:00;;;;;;;9.40;2.47;;;25.40;50.30;;;;;;6367005;22;20049;-76
2020/12/16 09:52:37;;;;;;;11.13;4.72;;;25.40;50.00;;;;;;6364229;22;20018;-73
2020/12/16 09:55:19;;;;;;;22.40;12.15;;;25.50;50.00;;;;;;6338844;22;20085;-72
2020/12/16 09:58:01;;;;;;;15.00;9.05;;;25.60;49.80;;;;;;6366902;22;20037;-77
2020/12/16 10:00:32;;;;;;;12.30;5.10;;;25.60;49.50;;;;;;6365292;22;20344;-75
2020/12/16 10:03:11;;;;;;;34.85;20.80;;;25.60;49.70;;;;;;6366093;22;20079;-74
2020/12/16 10:05:39;;;;;;;60.53;47.05;;;25.80;49.40;;;;;;6364895;22;20598;-73
2020/12/16 10:08:14;;;;;;;29.65;23.13;;;25.80;48.80;;;;;;6365860;22;20018;-74
2020/12/16 10:10:42;;;;;;;31.85;26.27;;;25.80;48.90;;;;;;6366600;22;20338;-73
2020/12/16 10:13:09;;;;;;;21.67;17.63;;;25.90;49.10;;;;;;6365371;22;20002;-74
2020/12/16 10:15:35;;;;;;;20.25;13.35;;;25.90;49.00;;;;;;6366516;22;20045;-73
2020/12/16 10:18:02;;;;;;;15.75;8.48;;;25.90;49.00;;;;;;6336304;22;20397;-76
2020/12/16 10:20:29;;;;;;;12.57;7.38;;;26.00;48.80;;;;;;6366976;22;20365;-75
2020/12/16 10:22:56;;;;;;;16.40;12.43;;;26.00;48.40;;;;;;6365071;22;20002;-74
2020/12/16 10:25:23;;;;;;;82.00;67.35;;;26.00;48.30;;;;;;6337991;22;19998;-74
2020/12/16 10:27:49;;;;;;;112.38;96.35;;;26.10;48.60;;;;;;6365641;22;20002;-72
2020/12/16 10:30:16;;;;;;;87.07;74.07;;;26.10;48.70;;;;;;6365346;22;20452;-72
2020/12/16 10:32:42;;;;;;;103.50;91.55;;;26.10;48.70;;;;;;6365794;22;20502;-73
2020/12/16 10:35:09;;;;;;;102.72;88.93;;;26.10;48.60;;;;;;6365393;22;20002;-75
2020/12/16 10:37:40;;;;;;;52.10;44.20;;;26.20;48.60;;;;;;6366615;22;20002;-77
2020/12/16 10:40:09;;;;;;;40.80;30.67;;;26.30;48.60;;;;;;6365273;22;20438;-74
2020/12/16 10:42:36;;;;;;;30.30;20.60;;;26.30;48.10;;;;;;6366504;22;20021;-74
2020/12/16 10:45:04;;;;;;;24.65;16.55;;;26.30;48.20;;;;;;6366303;22;19998;-74
2020/12/16 10:47:31;;;;;;;18.30;13.02;;;26.40;48.00;;;;;;6365088;22;19994;-74
2020/12/16 10:49:58;;;;;;;24.90;20.30;;;26.40;48.10;;;;;;6338037;22;20049;-74
2020/12/16 10:52:24;;;;;;;19.42;10.98;;;26.40;48.30;;;;;;6364300;22;20482;-75
2020/12/16 10:54:51;;;;;;;15.90;7.03;;;26.40;48.40;;;;;;6365327;22;20006;-75
2020/12/16 10:57:20;;;;;;;14.07;7.22;;;26.50;48.40;;;;;;6365324;22;19999;-75
2020/12/16 10:59:48;;;;;;;11.23;4.40;;;26.50;48.40;;;;;;6365656;22;20026;-75
2020/12/16 11:02:16;;;;;;;9.80;4.28;;;26.60;48.50;;;;;;6365498;22;19999;-75
2020/12/16 11:04:46;;;;;;;9.48;4.55;;;26.60;48.60;;;;;;6365127;22;20020;-74
2020/12/16 11:07:12;;;;;;;10.15;3.63;;;26.70;48.50;;;;;;6366117;22;20006;-73
2020/12/16 11:09:39;;;;;;;11.90;4.20;;;26.80;48.50;;;;;;6364868;22;20042;-77
2020/12/16 11:12:05;;;;;;;7.53;2.80;;;26.80;48.20;;;;;;6365808;22;20418;-74
2020/12/16 11:14:32;;;;;;;7.00;3.25;;;26.90;48.20;;;;;;6364950;22;20123;-75
2020/12/16 11:16:59;;;;;;;8.63;2.65;;;26.90;48.00;;;;;;6338602;22;20006;-74
2020/12/16 11:19:27;;;;;;;9.90;3.17;;;26.90;48.10;;;;;;6365261;22;20025;-77
2020/12/16 11:21:55;;;;;;;7.45;2.03;;;27.00;48.00;;;;;;6365024;22;20009;-77
2020/12/16 11:24:23;;;;;;;10.38;2.53;;;27.00;47.80;;;;;;6365779;22;20027;-76
2020/12/16 11:26:52;;;;;;;6.35;2.42;;;27.10;47.70;;;;;;6364446;22;20422;-77
2020/12/16 11:29:22;;;;;;;6.82;2.85;;;27.20;47.70;;;;;;6366065;22;20010;-73
2020/12/16 11:31:57;;;;;;;5.70;2.25;;;27.20;47.50;;;;;;6364556;22;20426;-74
2020/12/16 11:34:26;;;;;;;5.97;2.97;;;27.30;47.40;;;;;;6364861;22;20058;-75
2020/12/16 11:36:55;;;;;;;5.22;2.55;;;27.30;47.20;;;;;;6365293;22;20075;-76
2020/12/16 11:39:24;;;;;;;9.38;3.00;;;27.40;46.90;;;;;;6365229;22;20103;-75
2020/12/16 11:41:53;;;;;;;9.65;2.78;;;27.40;46.90;;;;;;6366302;22;19998;-74
2020/12/16 11:44:21;;;;;;;6.60;2.55;;;27.50;47.00;;;;;;6363972;22;19998;-75
2020/12/16 11:46:49;;;;;;;6.40;1.95;;;27.50;46.90;;;;;;6366031;22;20086;-77
2020/12/16 11:49:18;;;;;;;9.02;3.38;;;27.50;46.90;;;;;;6336220;22;20089;-74
2020/12/16 11:51:44;;;;;;;7.95;2.90;;;27.50;46.70;;;;;;6365597;22;20064;-73
2020/12/16 11:54:27;;;;;;;11.80;3.67;;;27.60;46.80;;;;;;6322718;22;20476;-77
2020/12/16 11:56:53;;;;;;;14.10;3.03;;;27.60;46.60;;;;;;6365170;22;20107;-74
2020/12/16 11:59:20;;;;;;;12.32;3.47;;;27.80;46.70;;;;;;6365534;22;20322;-74
2020/12/16 12:01:47;;;;;;;10.77;3.25;;;27.70;46.60;;;;;;6364064;22;20025;-78
2020/12/16 12:04:14;;;;;;;10.18;2.83;;;27.70;46.60;;;;;;6366254;22;19995;-76
2020/12/16 12:06:43;;;;;;;12.40;7.38;;;27.70;46.70;;;;;;6364955;22;20056;-76
2020/12/16 12:09:49;;;;;;;8.88;4.30;;;27.70;46.70;;;;;;6364837;22;20540;-74
2020/12/16 12:12:57;;;;;;;7.28;3.78;;;27.80;46.60;;;;;;6365054;22;20005;-77
2020/12/16 12:16:03;;;;;;;10.57;3.83;;;27.80;46.50;;;;;;6364185;22;19990;-75
2020/12/16 12:19:10;;;;;;;10.02;3.38;;;27.90;46.70;;;;;;6364957;22;20010;-74
2020/12/16 12:21:49;;;;;;;35.85;5.30;;;27.80;46.60;;;;;;6365687;22;20065;-74
2020/12/16 12:24:16;;;;;;;11.52;4.03;;;27.90;46.60;;;;;;6337053;22;20340;-74
2020/12/16 12:27:22;;;;;;;10.02;3.90;;;27.80;46.70;;;;;;6364342;22;20002;-75
2020/12/16 12:30:07;;;;;;;8.55;3.05;;;27.90;46.60;;;;;;6365466;22;20007;-75
2020/12/16 12:32:33;;;;;;;9.80;3.33;;;27.80;46.80;;;;;;6364913;22;20067;-77
2020/12/16 12:35:00;;;;;;;11.20;2.97;;;27.90;46.80;;;;;;6367650;22;20001;-76
2020/12/16 12:37:26;;;;;;;7.43;2.90;;;27.90;47.00;;;;;;6366177;22;20006;-76
2020/12/16 12:39:53;;;;;;;12.93;3.42;;;27.80;47.00;;;;;;6367036;22;19995;-76
2020/12/16 12:42:19;;;;;;;6.72;2.95;;;27.90;47.10;;;;;;6367262;22;20002;-76
2020/12/16 12:44:46;;;;;;;7.25;2.60;;;27.90;46.90;;;;;;6365527;22;20040;-75
2020/12/16 12:47:13;;;;;;;9.38;3.15;;;27.90;46.80;;;;;;6366996;22;20074;-76
2020/12/16 12:49:39;;;;;;;10.98;4.38;;;27.90;46.80;;;;;;6364797;22;20339;-74
2020/12/16 12:52:05;;;;;;;34.70;27.48;;;27.80;46.80;;;;;;6366518;22;20024;-74
2020/12/16 12:54:32;;;;;;;12.95;6.15;;;27.90;46.90;;;;;;6365567;22;20054;-74
2020/12/16 12:56:59;;;;;;;8.30;4.88;;;27.90;46.80;;;;;;6338792;22;20013;-77
2020/12/16 12:59:25;;;;;;;9.23;3.50;;;27.90;46.80;;;;;;6338984;22;19999;-78